Thurgau — HBLF — position and weather

sailwx.info

Track history (hours):
 
Tides and Currents Weather Stations Pressure Air Temp Water Temp Dewpoint Dewpoint Depression Visibility Wind Speed Wind Dir Waves Ship Positions

Thurgau

Last reported at 2015-Feb-27 09:22 UTC. Time now 2015-Mar-01 03:03 UTC.
Position S 27°03' E 153°53'.

Length 180 m; draft 7.6 m.

Type: Cargo ship. MMSI: 269217000.

Date/timePositionNaut miles runAvg speedWind from/ knotsBaromVisibWave heightAir tempDewpointWater temp
2015-Feb-27 09:22S 27°03' E 153°53'2210.9
2015-Feb-27 07:22S 27°25' E 153°56'31510.5
2015-Feb-26 01:22S 32°35' E 152°47'1012.6
2015-Feb-26 00:33S 32°43' E 152°41'1312.6
2015-Feb-25 23:33S 32°52' E 152°30'1211.9
2015-Feb-25 22:33S 33°01' E 152°20'1211.6
2015-Feb-25 21:33S 33°09' E 152°11'26111.8
2015-Feb-24 23:30S 37°13' E 150°17'1212.2
2015-Feb-24 22:32S 37°24' E 150°12'1111.2
2015-Feb-24 21:33S 37°34' E 150°05'1212.1
2015-Feb-24 20:32S 37°41' E 149°53'1312.7
2015-Feb-24 19:32S 37°50' E 149°41'13011.8
2015-Feb-24 08:31S 39°03' E 147°23'1212.4
2015-Feb-24 07:33S 39°07' E 147°09'1211.8
2015-Feb-24 06:33S 39°11' E 146°55'1211.9
2015-Feb-24 05:33S 39°15' E 146°41'1211.7
2015-Feb-24 04:33S 39°17' E 146°26'46111.4
2015-Feb-22 12:13S 35°25' E 138°05'913.4
2015-Feb-22 11:34S 35°17' E 138°09'1613.1
2015-Feb-22 10:21S 35°02' E 138°15'1113.2
2015-Feb-22 09:34S 34°52' E 138°20'  
2015-Feb-20 00:33S 35°17' E 137°47'4112.4
2015-Feb-19 21:14S 35°30' E 136°59'  
Track history (hours):
 
Tides and Currents Weather Stations Pressure Air Temp Water Temp Dewpoint Dewpoint Depression Visibility Wind Speed Wind Dir Waves Ship Positions

Thurgau

Last reported at 2015-Feb-27 09:22 UTC. Time now 2015-Mar-01 03:03 UTC.
Position S 27°03' E 153°53'.

Length 180 m; draft 7.6 m.

Type: Cargo ship. MMSI: 269217000.

Date/timePositionNaut miles runAvg speedWind from/ knotsBaromVisibWave heightAir tempDewpointWater temp
2015-Feb-27 09:22S 27°03' E 153°53'2210.9
2015-Feb-27 07:22S 27°25' E 153°56'31510.5
2015-Feb-26 01:22S 32°35' E 152°47'1012.6
2015-Feb-26 00:33S 32°43' E 152°41'1312.6
2015-Feb-25 23:33S 32°52' E 152°30'1211.9
2015-Feb-25 22:33S 33°01' E 152°20'1211.6
2015-Feb-25 21:33S 33°09' E 152°11'26111.8
2015-Feb-24 23:30S 37°13' E 150°17'1212.2
2015-Feb-24 22:32S 37°24' E 150°12'1111.2
2015-Feb-24 21:33S 37°34' E 150°05'1212.1
2015-Feb-24 20:32S 37°41' E 149°53'1312.7
2015-Feb-24 19:32S 37°50' E 149°41'13011.8
2015-Feb-24 08:31S 39°03' E 147°23'1212.4
2015-Feb-24 07:33S 39°07' E 147°09'1211.8
2015-Feb-24 06:33S 39°11' E 146°55'1211.9
2015-Feb-24 05:33S 39°15' E 146°41'1211.7
2015-Feb-24 04:33S 39°17' E 146°26'46111.4
2015-Feb-22 12:13S 35°25' E 138°05'913.4
2015-Feb-22 11:34S 35°17' E 138°09'1613.1
2015-Feb-22 10:21S 35°02' E 138°15'1113.2
2015-Feb-22 09:34S 34°52' E 138°20'  
2015-Feb-20 00:33S 35°17' E 137°47'4112.4
2015-Feb-19 21:14S 35°30' E 136°59'  

Dump ship's entire track history